createdAt,value
2018-03-17T00:00:23.333Z,34.63
2018-03-17T00:02:51.556Z,38.17
2018-03-17T00:05:19.771Z,41.13
2018-03-17T00:07:49.026Z,40.03
2018-03-17T00:10:17.307Z,35.73
2018-03-17T00:12:46.683Z,35.87
2018-03-17T00:15:14.869Z,38.87
2018-03-17T00:17:43.099Z,39.47
2018-03-17T00:20:12.146Z,36.70
2018-03-17T00:22:40.415Z,35.50
2018-03-17T00:25:08.652Z,37.27
2018-03-17T00:27:37.621Z,38.27
2018-03-17T00:30:05.865Z,37.50
2018-03-17T00:32:34.112Z,35.33
2018-03-17T00:35:02.723Z,35.70
2018-03-17T00:37:30.926Z,34.53
2018-03-17T00:39:59.215Z,36.23
2018-03-17T00:42:28.207Z,38.53
2018-03-17T00:44:57.215Z,36.87
2018-03-17T00:47:26.241Z,33.63
2018-03-17T00:49:55.374Z,33.07
2018-03-17T00:52:23.572Z,33.03
2018-03-17T00:54:52.566Z,33.77
2018-03-17T00:57:21.589Z,33.87
2018-03-17T00:59:49.952Z,36.20
2018-03-17T01:02:18.217Z,35.97
2018-03-17T01:04:47.556Z,36.03
2018-03-17T01:07:15.812Z,35.27
2018-03-17T01:09:44.804Z,34.23
2018-03-17T01:12:13.119Z,37.30
2018-03-17T01:14:41.363Z,37.03
2018-03-17T01:17:10.429Z,36.37
2018-03-17T01:19:38.609Z,35.20
2018-03-17T01:22:07.586Z,35.77
2018-03-17T01:24:35.889Z,38.43
2018-03-17T01:27:04.245Z,37.33
2018-03-17T01:29:33.264Z,36.27
2018-03-17T01:32:01.542Z,36.77
2018-03-17T01:34:29.749Z,34.53
2018-03-17T01:36:57.950Z,36.03
2018-03-17T01:39:26.197Z,34.57
2018-03-17T01:41:54.417Z,35.10
2018-03-17T01:44:22.613Z,32.17
2018-03-17T01:46:50.887Z,33.87
2018-03-17T01:49:21.093Z,32.97
2018-03-17T01:51:50.069Z,33.27
2018-03-17T01:54:30.122Z,31.93
2018-03-17T01:56:58.324Z,34.70
2018-03-17T01:59:27.343Z,35.20
2018-03-17T02:01:55.632Z,32.17
2018-03-17T02:04:23.849Z,32.83
2018-03-17T02:06:52.233Z,33.57
2018-03-17T02:09:20.441Z,33.80
2018-03-17T02:11:48.634Z,31.63
2018-03-17T02:14:16.864Z,32.60
2018-03-17T02:16:45.858Z,33.00
2018-03-17T02:19:14.853Z,33.07
2018-03-17T02:21:43.833Z,31.63
2018-03-17T02:24:12.605Z,32.23
2018-03-17T02:26:40.804Z,31.67
2018-03-17T02:29:09.019Z,32.03
2018-03-17T02:31:37.266Z,31.40
2018-03-17T02:34:06.267Z,29.70
2018-03-17T02:36:35.282Z,31.73
2018-03-17T02:39:03.513Z,33.63
2018-03-17T02:41:32.540Z,30.77
2018-03-17T02:44:00.696Z,33.80
2018-03-17T02:46:29.746Z,30.97
2018-03-17T02:48:57.969Z,31.97
2018-03-17T02:51:26.996Z,32.70
2018-03-17T02:53:55.255Z,32.23
2018-03-17T02:56:23.464Z,32.67
2018-03-17T02:58:51.704Z,33.73
2018-03-17T03:01:19.973Z,30.83
2018-03-17T03:03:48.937Z,32.77
2018-03-17T03:06:17.129Z,34.07
2018-03-17T03:08:48.577Z,34.97
2018-03-17T03:11:16.774Z,35.37
2018-03-17T03:13:44.981Z,34.93
2018-03-17T03:16:13.388Z,35.07
2018-03-17T03:18:41.583Z,38.57
2018-03-17T03:21:10.581Z,36.23
2018-03-17T03:23:38.824Z,36.13
2018-03-17T03:26:07.048Z,36.73
2018-03-17T03:28:36.014Z,38.23
2018-03-17T03:31:04.253Z,37.43
2018-03-17T03:33:32.473Z,38.80
2018-03-17T03:36:00.684Z,36.93
2018-03-17T03:38:28.959Z,37.50
2018-03-17T03:40:57.160Z,39.03
2018-03-17T03:43:25.369Z,38.67
2018-03-17T03:45:54.429Z,36.20
2018-03-17T03:48:22.653Z,38.10
2018-03-17T03:50:50.904Z,37.43
2018-03-17T03:53:20.384Z,40.03
2018-03-17T03:55:49.626Z,37.30
2018-03-17T03:58:18.596Z,37.43
2018-03-17T04:00:46.861Z,35.13
2018-03-17T04:03:15.062Z,35.13
2018-03-17T04:05:44.024Z,36.40
2018-03-17T04:08:12.300Z,38.30
2018-03-17T04:10:40.537Z,34.53
2018-03-17T04:13:08.852Z,35.30
2018-03-17T04:15:37.122Z,34.43
2018-03-17T04:18:05.366Z,33.60
2018-03-17T04:20:33.602Z,33.80
2018-03-17T04:23:02.621Z,33.17
2018-03-17T04:25:31.627Z,32.33
2018-03-17T04:27:59.874Z,33.97
2018-03-17T04:30:28.136Z,32.33
2018-03-17T04:32:56.379Z,32.73
2018-03-17T04:35:24.572Z,32.57
2018-03-17T04:37:52.880Z,33.77
2018-03-17T04:40:21.840Z,31.60
2018-03-17T04:42:50.089Z,32.10
2018-03-17T04:45:18.400Z,32.07
2018-03-17T04:47:46.664Z,27.93
2018-03-17T04:50:14.938Z,32.83
2018-03-17T04:52:43.200Z,31.23
2018-03-17T04:55:11.444Z,31.17
2018-03-17T04:57:39.666Z,30.03
2018-03-17T05:00:08.773Z,29.30
2018-03-17T05:02:36.997Z,27.67
2018-03-17T05:05:05.267Z,28.80
2018-03-17T05:07:33.506Z,30.00
2018-03-17T05:10:01.733Z,30.30
2018-03-17T05:12:29.945Z,28.30
2018-03-17T05:14:58.176Z,29.40
2018-03-17T05:17:26.387Z,30.17
2018-03-17T05:19:54.594Z,27.97
2018-03-17T05:22:23.684Z,28.00
2018-03-17T05:24:51.902Z,27.80
2018-03-17T05:27:20.128Z,26.70
2018-03-17T05:29:48.376Z,24.50
2018-03-17T05:32:16.635Z,25.50
2018-03-17T05:34:44.828Z,22.30
2018-03-17T05:37:13.071Z,25.13
2018-03-17T05:39:41.373Z,21.70
2018-03-17T05:42:09.606Z,22.87
2018-03-17T05:44:38.717Z,22.70
2018-03-17T05:47:06.938Z,21.27
2018-03-17T05:49:35.153Z,23.23
2018-03-17T05:52:04.209Z,23.30
2018-03-17T05:54:32.417Z,22.33
2018-03-17T05:57:04.992Z,22.03
2018-03-17T05:59:34.051Z,22.30
2018-03-17T06:02:02.284Z,22.40
2018-03-17T06:04:30.778Z,21.47
2018-03-17T06:06:58.972Z,23.43
2018-03-17T06:09:27.237Z,20.77
2018-03-17T06:11:55.609Z,21.77
2018-03-17T06:14:23.862Z,22.80
2018-03-17T06:16:52.056Z,22.40
2018-03-17T06:19:20.321Z,22.30
2018-03-17T06:21:48.513Z,22.27
2018-03-17T06:24:16.792Z,22.03
2018-03-17T06:26:45.060Z,22.00
2018-03-17T06:29:13.313Z,22.13
2018-03-17T06:31:42.296Z,23.07
2018-03-17T06:34:10.520Z,23.97
2018-03-17T06:36:38.737Z,22.43
2018-03-17T06:39:08.078Z,22.97
2018-03-17T06:41:36.311Z,24.87
2018-03-17T06:44:04.595Z,22.87
2018-03-17T06:46:32.796Z,24.27
2018-03-17T06:49:01.085Z,24.30
2018-03-17T06:51:29.343Z,25.10
2018-03-17T06:53:57.743Z,24.27
2018-03-17T06:59:04.211Z,25.20
2018-03-17T07:01:32.449Z,24.53
2018-03-17T07:04:00.775Z,24.30
2018-03-17T07:06:29.061Z,25.77
2018-03-17T07:08:57.277Z,23.67
2018-03-17T07:11:25.501Z,26.33
2018-03-17T07:13:53.753Z,26.27
2018-03-17T07:16:22.520Z,25.67
2018-03-17T07:18:50.712Z,26.70
2018-03-17T07:21:19.707Z,25.77
2018-03-17T07:23:48.689Z,25.00
2018-03-17T07:26:17.735Z,25.97
2018-03-17T07:28:45.971Z,26.10
2018-03-17T07:31:14.949Z,24.77
2018-03-17T07:33:43.928Z,27.87
2018-03-17T07:36:12.317Z,28.33
2018-03-17T07:38:40.593Z,26.23
2018-03-17T07:41:08.936Z,25.17
2018-03-17T07:43:37.233Z,25.97
2018-03-17T07:46:05.693Z,26.97
2018-03-17T07:48:33.884Z,26.83
2018-03-17T07:51:02.144Z,26.63
2018-03-17T07:53:30.404Z,27.53
2018-03-17T07:55:58.592Z,27.27
2018-03-17T07:58:27.034Z,25.30
2018-03-17T08:00:57.366Z,26.53
2018-03-17T08:03:25.639Z,24.77
2018-03-17T08:05:54.866Z,26.97
2018-03-17T08:08:23.529Z,25.67
2018-03-17T08:10:52.561Z,25.20
2018-03-17T08:13:20.847Z,25.23
2018-03-17T08:15:49.162Z,25.20
2018-03-17T08:18:17.382Z,25.97
2018-03-17T08:20:46.383Z,27.57
2018-03-17T08:23:14.627Z,26.30
2018-03-17T08:25:43.579Z,27.27
2018-03-17T08:28:11.887Z,25.40
2018-03-17T08:30:40.205Z,25.50
2018-03-17T08:33:08.406Z,24.17
2018-03-17T08:35:36.720Z,25.50
2018-03-17T08:38:05.732Z,25.40
2018-03-17T08:40:34.034Z,25.17
2018-03-17T08:43:03.308Z,26.03
2018-03-17T08:45:32.269Z,25.27
2018-03-17T08:48:00.490Z,25.53
2018-03-17T08:50:28.788Z,24.17
2018-03-17T08:52:57.172Z,24.63
2018-03-17T08:55:25.520Z,24.67
2018-03-17T08:57:53.752Z,25.03
2018-03-17T09:00:22.032Z,24.33
2018-03-17T09:02:51.066Z,25.97
2018-03-17T09:05:19.304Z,24.60
2018-03-17T09:07:48.282Z,25.93
2018-03-17T09:10:16.539Z,25.63
2018-03-17T09:12:44.745Z,24.20
2018-03-17T09:15:13.834Z,25.97
2018-03-17T09:17:42.052Z,22.70
2018-03-17T09:20:10.410Z,24.73
2018-03-17T09:22:39.460Z,23.60
2018-03-17T09:25:07.749Z,23.23
2018-03-17T09:27:36.023Z,25.40
2018-03-17T09:30:04.213Z,25.37
2018-03-17T09:32:33.221Z,24.30
2018-03-17T09:35:02.236Z,25.40
2018-03-17T09:37:30.513Z,24.90
2018-03-17T09:39:58.771Z,25.93
2018-03-17T09:42:27.062Z,26.70
2018-03-17T09:44:55.421Z,24.47
2018-03-17T09:47:24.446Z,27.07
2018-03-17T09:49:52.712Z,25.20
2018-03-17T09:52:21.015Z,26.53
2018-03-17T09:54:49.206Z,25.97
2018-03-17T09:57:17.441Z,26.77
2018-03-17T09:59:45.847Z,25.20
2018-03-17T10:02:14.108Z,24.13
2018-03-17T10:04:42.368Z,25.13
2018-03-17T10:07:10.644Z,25.33
2018-03-17T10:09:38.841Z,25.73
2018-03-17T10:12:07.325Z,23.87
2018-03-17T10:14:35.578Z,24.23
2018-03-17T10:17:03.794Z,26.43
2018-03-17T10:19:32.020Z,24.03
2018-03-17T10:22:00.320Z,24.40
2018-03-17T10:24:28.569Z,24.20
2018-03-17T10:26:57.779Z,22.63
2018-03-17T10:29:26.833Z,22.40
2018-03-17T10:34:27.798Z,22.80
2018-03-17T10:36:56.027Z,24.40
2018-03-17T10:39:24.265Z,22.13
2018-03-17T10:41:53.476Z,22.90
2018-03-17T10:44:21.765Z,23.70
2018-03-17T10:46:50.533Z,23.77
2018-03-17T10:49:19.094Z,23.43
2018-03-17T10:51:47.438Z,22.77
2018-03-17T10:54:15.693Z,24.47
2018-03-17T10:56:44.658Z,23.50
2018-03-17T10:59:13.704Z,21.20
2018-03-17T11:01:41.928Z,22.33
2018-03-17T11:04:10.149Z,21.80
2018-03-17T11:06:38.392Z,22.43
2018-03-17T11:09:07.450Z,22.17
2018-03-17T11:11:35.743Z,22.43
2018-03-17T11:14:03.929Z,22.60
2018-03-17T11:16:32.136Z,23.17
2018-03-17T11:19:00.370Z,21.27
2018-03-17T11:21:28.587Z,22.80
2018-03-17T11:23:56.811Z,22.63
2018-03-17T11:26:25.088Z,23.83
2018-03-17T11:28:53.280Z,23.33
2018-03-17T11:31:22.277Z,22.83
2018-03-17T11:33:50.568Z,22.87
2018-03-17T11:36:18.732Z,23.33
2018-03-17T11:38:46.961Z,22.43
2018-03-17T11:41:15.945Z,24.20
2018-03-17T11:43:44.173Z,23.00
2018-03-17T11:46:13.150Z,22.37
2018-03-17T11:48:41.380Z,23.73
2018-03-17T11:51:09.621Z,23.07
2018-03-17T11:53:38.632Z,23.93
2018-03-17T11:56:07.701Z,23.03
2018-03-17T11:58:35.979Z,23.60
2018-03-17T12:01:04.226Z,22.27
2018-03-17T12:03:32.458Z,22.50
2018-03-17T12:06:00.701Z,22.30
2018-03-17T12:08:30.289Z,21.70
2018-03-17T12:10:58.589Z,24.37
2018-03-17T12:13:26.787Z,21.60
2018-03-17T12:15:55.893Z,22.00
2018-03-17T12:18:24.204Z,21.10
2018-03-17T12:20:52.517Z,22.57
2018-03-17T12:23:20.840Z,22.90
2018-03-17T12:25:49.094Z,21.60
2018-03-17T12:28:17.359Z,22.03
2018-03-17T12:30:46.326Z,21.47
2018-03-17T12:33:14.821Z,21.07
2018-03-17T12:35:43.053Z,20.93
2018-03-17T12:38:11.278Z,21.40
2018-03-17T12:40:40.300Z,21.40
2018-03-17T12:43:08.608Z,22.90
2018-03-17T12:45:36.817Z,22.53
2018-03-17T12:48:05.048Z,22.13
2018-03-17T12:50:33.326Z,22.30
2018-03-17T12:53:01.590Z,23.03
2018-03-17T12:55:30.564Z,23.23
2018-03-17T12:57:58.922Z,24.90
2018-03-17T13:00:27.909Z,22.60
2018-03-17T13:02:56.171Z,23.23
2018-03-17T13:05:24.361Z,21.87
2018-03-17T13:07:52.571Z,23.17
2018-03-17T13:10:22.299Z,23.37
2018-03-17T13:12:50.543Z,24.47
2018-03-17T13:15:19.564Z,22.57
2018-03-17T13:17:47.925Z,24.83
2018-03-17T13:20:16.950Z,24.13
2018-03-17T13:22:56.969Z,24.03
2018-03-17T13:25:25.176Z,25.23
2018-03-17T13:28:05.186Z,25.43
2018-03-17T13:30:34.260Z,24.37
2018-03-17T13:33:02.731Z,26.17
2018-03-17T13:35:42.757Z,25.27
2018-03-17T13:38:11.033Z,26.93
2018-03-17T13:40:42.178Z,25.70
2018-03-17T13:43:10.575Z,24.43
2018-03-17T13:45:38.805Z,25.57
2018-03-17T13:48:07.111Z,25.77
2018-03-17T13:50:35.377Z,26.43
2018-03-17T13:53:03.595Z,26.00
2018-03-17T13:55:31.814Z,25.97
2018-03-17T13:58:00.066Z,25.37
2018-03-17T14:00:29.037Z,23.97
2018-03-17T14:02:57.353Z,24.53
2018-03-17T14:05:25.668Z,24.73
2018-03-17T14:07:53.855Z,27.03
2018-03-17T14:12:46.668Z,23.57
2018-03-17T14:15:15.822Z,25.93
2018-03-17T14:17:44.937Z,27.03
2018-03-17T14:20:13.217Z,28.70
2018-03-17T14:22:41.501Z,25.07
2018-03-17T14:25:10.472Z,26.37
2018-03-17T14:27:39.995Z,27.53
2018-03-17T14:30:09.124Z,26.83
2018-03-17T14:32:37.333Z,27.13
2018-03-17T14:35:05.625Z,25.70
2018-03-17T14:37:33.935Z,27.07
2018-03-17T14:40:02.391Z,27.20
2018-03-17T14:42:30.691Z,26.43
2018-03-17T14:44:59.737Z,24.37
2018-03-17T14:47:28.181Z,25.87
2018-03-17T14:49:56.502Z,27.60
2018-03-17T14:52:24.784Z,26.10
2018-03-17T14:54:53.087Z,27.23
2018-03-17T14:57:22.115Z,26.40
2018-03-17T14:59:50.359Z,27.20
2018-03-17T15:02:19.373Z,25.70
2018-03-17T15:04:48.391Z,27.23
2018-03-17T15:07:16.656Z,27.43
2018-03-17T15:09:45.921Z,27.30
2018-03-17T15:12:17.372Z,26.53
2018-03-17T15:14:46.499Z,26.40
2018-03-17T15:17:14.868Z,29.47
2018-03-17T15:19:43.141Z,28.13
2018-03-17T15:22:11.346Z,26.07
2018-03-17T15:24:39.909Z,26.73
2018-03-17T15:27:08.208Z,27.83
2018-03-17T15:29:36.429Z,26.80
2018-03-17T15:32:05.434Z,27.43
2018-03-17T15:34:34.483Z,26.37
2018-03-17T15:37:02.712Z,26.20
2018-03-17T15:39:30.985Z,25.23
2018-03-17T15:41:59.222Z,24.90
2018-03-17T15:44:27.529Z,26.33
2018-03-17T15:46:56.499Z,26.17
2018-03-17T15:49:24.888Z,28.03
2018-03-17T15:51:53.933Z,24.43
2018-03-17T15:54:22.319Z,25.53
2018-03-17T15:56:51.216Z,26.37
2018-03-17T15:59:19.529Z,25.87
2018-03-17T16:01:48.525Z,27.60
2018-03-17T16:04:17.400Z,26.77
2018-03-17T16:06:45.621Z,28.20
2018-03-17T16:09:14.377Z,28.67
2018-03-17T16:11:42.591Z,26.93
2018-03-17T16:14:10.924Z,27.40
2018-03-17T16:16:39.270Z,26.37
2018-03-17T16:19:07.580Z,29.07
2018-03-17T16:21:35.817Z,27.53
2018-03-17T16:24:04.060Z,26.27
2018-03-17T16:26:33.075Z,25.97
2018-03-17T16:29:01.320Z,25.50
2018-03-17T16:31:30.322Z,27.00
2018-03-17T16:33:58.598Z,25.67
2018-03-17T16:36:26.837Z,27.37
2018-03-17T16:38:55.045Z,25.30
2018-03-17T16:41:23.346Z,25.70
2018-03-17T16:43:51.634Z,28.43
2018-03-17T16:46:19.841Z,23.63
2018-03-17T16:48:48.073Z,25.57
2018-03-17T16:51:19.834Z,26.53
2018-03-17T16:53:48.121Z,22.53
2018-03-17T16:56:16.429Z,25.20
2018-03-17T16:58:44.685Z,23.80
2018-03-17T17:01:12.943Z,25.17
2018-03-17T17:03:43.752Z,25.50
2018-03-17T17:06:12.173Z,25.43
2018-03-17T17:08:40.401Z,24.60
2018-03-17T17:11:08.678Z,25.07
2018-03-17T17:13:36.901Z,25.00
2018-03-17T17:16:05.161Z,25.40
2018-03-17T17:18:33.468Z,24.73
2018-03-17T17:21:01.781Z,25.23
2018-03-17T17:23:30.025Z,26.53
2018-03-17T17:25:58.345Z,24.10
2018-03-17T17:28:26.623Z,23.00
2018-03-17T17:30:54.817Z,24.73
2018-03-17T17:33:23.283Z,24.50
2018-03-17T17:35:51.555Z,24.40
2018-03-17T17:38:19.914Z,23.73
2018-03-17T17:40:48.971Z,24.20
2018-03-17T17:43:17.236Z,24.30
2018-03-17T17:45:45.509Z,22.73
2018-03-17T17:48:14.504Z,24.73
2018-03-17T17:50:44.087Z,24.33
2018-03-17T17:53:16.542Z,22.63
2018-03-17T17:55:44.858Z,24.23
2018-03-17T17:58:13.124Z,25.57
2018-03-17T18:00:41.477Z,25.17
2018-03-17T18:03:09.701Z,27.27
2018-03-17T18:05:37.900Z,24.70
2018-03-17T18:08:06.149Z,23.53
2018-03-17T18:10:34.381Z,23.93
2018-03-17T18:13:02.588Z,24.57
2018-03-17T18:15:30.829Z,24.83
2018-03-17T18:17:59.036Z,24.33
2018-03-17T18:20:27.262Z,25.33
2018-03-17T18:22:56.276Z,25.47
2018-03-17T18:25:25.342Z,25.33
2018-03-17T18:27:53.714Z,24.10
2018-03-17T18:30:21.969Z,24.10
2018-03-17T18:32:50.287Z,23.43
2018-03-17T18:35:19.310Z,22.57
2018-03-17T18:37:47.553Z,21.43
2018-03-17T18:40:16.591Z,24.57
2018-03-17T18:42:44.822Z,24.40
2018-03-17T18:45:15.146Z,24.70
2018-03-17T18:47:43.323Z,24.17
2018-03-17T18:50:13.176Z,25.77
2018-03-17T18:52:42.341Z,24.60
2018-03-17T18:55:11.542Z,22.90
2018-03-17T18:57:39.761Z,23.63
2018-03-17T19:00:08.302Z,24.10
2018-03-17T19:02:36.510Z,24.13
2018-03-17T19:05:04.786Z,22.90
2018-03-17T19:07:33.074Z,27.87
2018-03-17T19:10:01.314Z,24.10
2018-03-17T19:12:29.562Z,24.27
2018-03-17T19:14:58.624Z,25.40
2018-03-17T19:17:26.837Z,23.53
2018-03-17T19:19:55.082Z,24.47
2018-03-17T19:22:23.348Z,23.97
2018-03-17T19:24:51.567Z,24.20
2018-03-17T19:27:20.360Z,25.20
2018-03-17T19:29:49.420Z,24.10
2018-03-17T19:32:17.619Z,23.43
2018-03-17T19:34:46.801Z,23.80
2018-03-17T19:37:15.106Z,24.63
2018-03-17T19:39:44.128Z,24.80
2018-03-17T19:42:12.443Z,24.77
2018-03-17T19:44:40.809Z,24.10
2018-03-17T19:47:09.014Z,25.63
2018-03-17T19:49:37.269Z,23.93
2018-03-17T19:52:05.511Z,24.47
2018-03-17T19:56:57.523Z,22.80
2018-03-17T19:59:26.631Z,23.37
2018-03-17T20:01:55.613Z,25.07
2018-03-17T20:04:24.634Z,22.13
2018-03-17T20:06:52.886Z,23.57
2018-03-17T20:09:21.856Z,23.33
2018-03-17T20:11:50.074Z,24.10
2018-03-17T20:14:18.367Z,24.47
2018-03-17T20:16:46.553Z,23.80
2018-03-17T20:19:14.910Z,23.00
2018-03-17T20:21:44.012Z,23.10
2018-03-17T20:24:12.317Z,25.37
2018-03-17T20:26:40.537Z,26.50
2018-03-17T20:29:09.541Z,23.80
2018-03-17T20:31:37.745Z,24.80
2018-03-17T20:34:05.999Z,24.10
2018-03-17T20:36:34.329Z,24.73
2018-03-17T20:39:02.574Z,24.93
2018-03-17T20:41:30.821Z,24.57
2018-03-17T20:43:59.095Z,23.20
2018-03-17T20:46:27.687Z,23.13
2018-03-17T20:48:56.005Z,24.43
2018-03-17T20:51:24.365Z,25.90
2018-03-17T20:53:52.595Z,24.47
2018-03-17T20:56:20.785Z,25.30
2018-03-17T20:58:49.125Z,24.17
2018-03-17T21:01:17.434Z,24.70
2018-03-17T21:03:46.458Z,23.40
2018-03-17T21:06:14.787Z,24.30
2018-03-17T21:08:43.053Z,25.27
2018-03-17T21:11:11.416Z,26.17
2018-03-17T21:13:39.696Z,24.60
2018-03-17T21:16:08.124Z,25.10
2018-03-17T21:18:36.341Z,25.17
2018-03-17T21:21:04.654Z,25.10
2018-03-17T21:23:33.680Z,26.30
2018-03-17T21:26:02.100Z,23.37
2018-03-17T21:28:30.488Z,24.43
2018-03-17T21:30:58.696Z,25.57
2018-03-17T21:33:26.966Z,24.27
2018-03-17T21:35:55.977Z,23.30
2018-03-17T21:38:24.180Z,25.80
2018-03-17T21:40:52.586Z,23.97
2018-03-17T21:43:20.980Z,23.80
2018-03-17T21:45:49.203Z,27.10
2018-03-17T21:48:17.618Z,24.87
2018-03-17T21:50:46.741Z,23.73
2018-03-17T21:53:15.808Z,24.40
2018-03-17T21:55:44.114Z,22.63
2018-03-17T21:58:13.227Z,24.53
2018-03-17T22:00:41.537Z,25.33
2018-03-17T22:03:10.583Z,24.33
2018-03-17T22:05:39.599Z,24.63
2018-03-17T22:08:07.872Z,25.07
2018-03-17T22:10:36.390Z,25.03
2018-03-17T22:13:05.611Z,25.43
2018-03-17T22:15:33.986Z,24.90
2018-03-17T22:18:02.177Z,24.50
2018-03-17T22:20:31.467Z,24.43
2018-03-17T22:22:59.689Z,25.20
2018-03-17T22:25:28.818Z,24.13
2018-03-17T22:27:57.130Z,25.80
2018-03-17T22:30:26.103Z,24.40
2018-03-17T22:32:54.500Z,25.67
2018-03-17T22:35:24.000Z,24.83
2018-03-17T22:37:52.310Z,22.57
2018-03-17T22:40:21.591Z,23.10
2018-03-17T22:42:49.847Z,25.07
2018-03-17T22:45:18.065Z,23.60
2018-03-17T22:47:46.271Z,23.77
2018-03-17T22:50:15.090Z,24.63
2018-03-17T22:52:44.212Z,26.03
2018-03-17T22:55:12.501Z,23.77
2018-03-17T22:57:40.804Z,24.93
2018-03-17T23:00:09.706Z,23.93
2018-03-17T23:02:38.141Z,25.27
2018-03-17T23:05:07.216Z,24.63
2018-03-17T23:07:35.722Z,26.27
2018-03-17T23:10:04.850Z,25.57
2018-03-17T23:12:33.213Z,24.37
2018-03-17T23:15:01.432Z,25.87
2018-03-17T23:17:29.746Z,25.20
2018-03-17T23:19:58.772Z,24.10
2018-03-17T23:22:26.981Z,25.13
2018-03-17T23:24:55.192Z,25.20
2018-03-17T23:27:23.550Z,23.93
2018-03-17T23:29:52.718Z,23.53
2018-03-17T23:32:21.330Z,25.37
2018-03-17T23:34:49.755Z,23.93
2018-03-17T23:37:18.134Z,25.53
2018-03-17T23:39:46.391Z,23.87
2018-03-17T23:42:15.520Z,26.00
2018-03-17T23:44:43.987Z,25.83
2018-03-17T23:47:12.292Z,25.17
2018-03-17T23:49:40.794Z,24.53
2018-03-17T23:52:09.086Z,27.47
2018-03-17T23:54:38.833Z,24.83
2018-03-17T23:57:07.715Z,25.23
2018-03-17T23:59:37.137Z,24.40
